METAR Data
IDs: Format: Raw Decoded Include TAF

Data at: 2253 UTC 02 Aug 2021

ESMQ 022250Z AUTO 29008KT 9999 FEW062/// 13/11 Q1007